WEATHER DATA

YESTERDAY
Time Temp. Dewp. Hum. Bar. 1h Prec. 24h Prec.
00:06 14.8 4.5 50 1021.1 0.0000 0.0000
00:09 14.7 4.4 50 1021.1 0.0000 0.0000
00:26 14.4 4.1 50 1021.1 0.0000 0.0000
00:36 14.2 4.2 51 1021.2 0.0000 0.0000
00:46 14 4 51 1021 0.0000 0.0000
00:56 13.8 3.8 51 1020.8 0.0000 0.0000
01:06 13.6 3.7 51 1020.8 0.0000 0.0000
01:16 13.5 3.6 51 1020.7 0.0000 0.0000
01:26 13.2 3.6 52 1020.7 0.0000 0.0000
01:36 13 3.4 52 1020.5 0.0000 0.0000
01:47 12.9 3.3 52 1020.3 0.0000 0.0000
01:57 12.8 3.2 52 1020.3 0.0000 0.0000
02:07 12.6 3 52 1020.1 0.0000 0.0000
02:17 12.3 3 53 1020.1 0.0000 0.0000
02:27 12.1 2.8 53 1020.1 0.0000 0.0000
02:37 11.8 2.8 54 1019.9 0.0000 0.0000
02:47 11.6 2.9 55 1019.8 0.0000 0.0000
02:58 11.5 2.5 54 1019.7 0.0000 0.0000
03:08 11.3 2.6 55 1019.5 0.0000 0.0000
03:17 11.2 2.5 55 1019.4 0.0000 0.0000
03:28 10.9 2.2 55 1019.2 0.0000 0.0000
03:38 10.7 2 55 1019.2 0.0000 0.0000
03:48 10.5 1.9 55 1019.4 0.0000 0.0000
03:58 10.4 2.3 57 1019.2 0.0000 0.0000
04:09 10.1 2 57 1019.2 0.0000 0.0000
04:19 9.9 1.8 57 1019.2 0.0000 0.0000
04:29 9.7 2.1 59 1019.2 0.0000 0.0000
04:38 9.5 1.9 59 1019.2 0.0000 0.0000
04:48 9.4 1.6 58 1019.1 0.0000 0.0000
04:59 9.2 1.8 60 1019 0.0000 0.0000
05:09 9 1.7 60 1018.9 0.0000 0.0000
05:19 8.8 1.7 61 1018.8 0.0000 0.0000
05:30 8.6 1.5 61 1018.6 0.0000 0.0000
05:39 8.4 1.3 61 1018.5 0.0000 0.0000
05:49 8.3 1.5 62 1018.3 0.0000 0.0000
06:00 8.2 1.4 62 1018.5 0.0000 0.0000
06:10 8.1 1.3 62 1018.3 0.0000 0.0000
06:20 7.9 1.3 63 1018.2 0.0000 0.0000
06:30 7.8 1.4 64 1018.3 0.0000 0.0000
06:41 7.7 1.3 64 1018.3 0.0000 0.0000
06:50 7.7 1.5 65 1018.3 0.0000 0.0000
07:00 7.7 1.8 66 1018.3 0.0000 0.0000
07:11 7.6 1.7 66 1018.2 0.0000 0.0000
07:21 7.6 1.9 67 1018.1 0.0000 0.0000
07:31 7.6 1.9 67 1018.1 0.0000 0.0000
07:41 7.7 2 67 1018.2 0.0000 0.0000
07:51 7.8 2.1 67 1018.2 0.0000 0.0000
08:01 7.9 2.4 68 1018.1 0.0000 0.0000
08:11 8.2 2.7 68 1018 0.0000 0.0000
08:21 8.5 3.1 69 1018 0.0000 0.0000
08:32 8.8 3.4 69 1018 0.0000 0.0000
08:42 9.2 3.8 69 1017.9 0.0000 0.0000
08:52 9.6 4.2 69 1018.1 0.0000 0.0000
09:02 10.1 4.7 69 1017.8 0.0000 0.0000
09:12 10.6 4.9 68 1017.7 0.0000 0.0000
09:22 11.2 5.3 67 1017.8 0.0000 0.0000
09:32 11.9 6 67 1017.7 0.0000 0.0000
09:43 12.8 6.6 66 1017.5 0.0000 0.0000
09:53 13.8 7.6 66 1017.5 0.0000 0.0000
10:02 14.8 8.3 65 1017.4 0.0000 0.0000
10:13 15.9 9.1 64 1017.3 0.0000 0.0000
10:23 16.8 9.5 62 1017.2 0.0000 0.0000
10:33 17.6 9.8 60 1016.9 0.0000 0.0000
10:43 18.5 10.1 58 1017 0.0000 0.0000
10:54 19.1 10.1 56 1016.9 0.0000 0.0000
11:04 19.5 10.2 55 1016.8 0.0000 0.0000
11:11 20.1 10.8 55 1016.8 0.0000 0.0000
11:26 20.7 10.2 51 1016.5 0.0000 0.0000
11:41 21.1 10 49 1016.4 0.0000 0.0000
12:00 21.3 9.2 46 1016.1 0.0000 0.0000
12:11 21.4 9 45 1016.1 0.0000 0.0000
12:21 21.3 7.9 42 1016 0.0000 0.0000
12:31 21.3 8.2 43 1015.7 0.0000 0.0000
12:41 21.3 7.9 42 1015.6 0.0000 0.0000
12:52 21.4 8.3 43 1015.4 0.0000 0.0000
13:01 21.4 8 42 1015.3 0.0000 0.0000
13:12 21.5 8.1 42 1015.2 0.0000 0.0000
13:22 21.5 7.7 41 1015 0.0000 0.0000
13:31 21.5 8.1 42 1014.9 0.0000 0.0000
13:42 21.6 8.2 42 1014.8 0.0000 0.0000
13:52 21.8 8.3 42 1014.7 0.0000 0.0000
14:02 21.9 8.8 43 1014.7 0.0000 0.0000
14:12 22 8.5 42 1014.5 0.0000 0.0000
14:23 22.1 8.6 42 1014.4 0.0000 0.0000
14:32 22.1 8.6 42 1014.2 0.0000 0.0000
14:42 22.3 8.8 42 1014.1 0.0000 0.0000
14:53 22.4 8.9 42 1013.9 0.0000 0.0000
15:03 22.6 9.4 43 1013.7 0.0000 0.0000
15:13 22.8 9.2 42 1013.6 0.0000 0.0000
15:23 23 9.1 41 1013.5 0.0000 0.0000
15:30 23.2 9.2 41 1013.2 0.0000 0.0000
15:43 23.4 9.4 41 1013 0.0000 0.0000
15:53 23.7 9.3 40 1013 0.0000 0.0000
16:03 23.8 9.4 40 1012.9 0.0000 0.0000
16:14 24.2 9.8 40 1012.6 0.0000 0.0000
16:24 24.2 9.8 40 1012.2 0.0000 0.0000
16:34 24.1 9.3 39 1012.2 0.0000 0.0000
16:39 23.9 9.1 39 1012.2 0.0000 0.0000
16:51 23.6 9.2 40 1012.1 0.0000 0.0000
17:04 23.5 9.5 41 1011.8 0.0000 0.0000
17:14 23.3 9.3 41 1011.8 0.0000 0.0000
17:21 23.3 9.3 41 1011.8 0.0000 0.0000
17:35 23.1 9.1 41 1011.7 0.0000 0.0000
17:45 23 9.1 41 1011.5 0.0000 0.0000
17:54 22.9 8.6 40 1011.4 0.0000 0.0000
18:02 22.8 8.9 41 1011.5 0.0000 0.0000
18:15 22.7 8.8 41 1011.4 0.0000 0.0000
18:25 22.6 8.7 41 1011.4 0.0000 0.0000
18:36 22.4 8.2 40 1011.2 0.0000 0.0000
18:46 22.3 8.1 40 1011.1 0.0000 0.0000
18:55 22.2 8 40 1010.8 0.0000 0.0000
19:05 22.1 8.2 41 1010.9 0.0000 0.0000
19:15 22 8.2 41 1010.7 0.0000 0.0000
19:26 21.8 7.6 40 1010.7 0.0000 0.0000
19:36 21.7 7.9 41 1010.8 0.0000 0.0000
19:46 21.5 7.7 41 1010.7 0.0000 0.0000
19:56 21.3 7.9 42 1010.8 0.0000 0.0000
20:07 21 7.6 42 1010.5 0.0000 0.0000
20:16 20.8 7.8 43 1010.8 0.0000 0.0000
20:21 20.7 7.7 43 1010.8 0.0000 0.0000
20:33 20.3 7.3 43 1010.8 0.0000 0.0000
20:47 19.8 7.2 44 1010.7 0.0000 0.0000
20:57 19.4 6.8 44 1010.8 0.0000 0.0000
21:08 19.1 6.9 45 1010.8 0.0000 0.0000
21:18 18.7 6.5 45 1010.8 0.0000 0.0000
21:27 18.4 6.6 46 1010.5 0.0000 0.0000
21:36 18.2 6.4 46 1010.5 0.0000 0.0000
21:48 17.7 5.9 46 1010.4 0.0000 0.0000
21:58 17.4 6 47 1010.4 0.0000 0.0000
22:08 17.2 5.8 47 1010.4 0.0000 0.0000
22:15 17 5.9 48 1010.3 0.0000 0.0000
22:28 16.6 5.6 48 1010.2 0.0000 0.0000
22:38 16.4 5.7 49 1010.1 0.0000 0.0000
22:48 16.2 5.5 49 1010 0.0000 0.0000
22:59 15.9 5.5 50 1010.1 0.0000 0.0000
23:09 15.7 5.3 50 1009.9 0.0000 0.0000
23:18 15.4 5.3 51 1010 0.0000 0.0000
23:29 15.1 5.3 52 1009.9 0.0000 0.0000
23:39 14.9 5.4 53 1009.8 0.0000 0.0000
23:49 14.6 5.4 54 1009.8 0.0000 0.0000

DAY STATISTIC

2019-04-21
TEMPERATURE
AVERAGE
16.3
HIGH
24.2
16:14
LOW
7.6
07:11
PRESSURE
AVERAGE
1015.4
HIGH
1021.2
00:36
LOW
1009.8
23:39
DEWPOINT
AVERAGE
5.9
HIGH
10.8
11:11
LOW
1.3
05:39
HUMIDITY
AVERAGE
51
HIGH
69
08:21
LOW
39
16:34
PRECIPITATION
RAIN HOUR
0.0
RAIN DAY
0.0
TEMPERATURE (°C)
LOW
7.6
HIGH
24.2
AVERAGE
16.3
PRESSURE (hpa)
LOW
1009.8
HIGH
1021.2
AVERAGE
1015.4
DEVICE